sensor_id;sensor_type;location;lat;lon;timestamp;pressure;altitude;pressure_sealevel;temperature;humidity
75418;BME280;63997;52.112;5.420;2023-03-30T00:00:12;100657.44;;;12.01;80.90
75418;BME280;63997;52.112;5.420;2023-03-30T00:02:47;100662.91;;;12.04;80.52
75418;BME280;63997;52.112;5.420;2023-03-30T00:05:18;100667.59;;;12.07;80.39
75418;BME280;63997;52.112;5.420;2023-03-30T00:07:45;100661.91;;;12.09;80.42
75418;BME280;63997;52.112;5.420;2023-03-30T00:10:15;100654.56;;;12.06;79.74
75418;BME280;63997;52.112;5.420;2023-03-30T00:12:43;100645.03;;;12.05;80.00
75418;BME280;63997;52.112;5.420;2023-03-30T00:15:13;100645.34;;;12.03;79.87
75418;BME280;63997;52.112;5.420;2023-03-30T00:17:40;100625.38;;;12.09;79.47
75418;BME280;63997;52.112;5.420;2023-03-30T00:20:08;100629.91;;;12.09;79.23
75418;BME280;63997;52.112;5.420;2023-03-30T00:22:38;100622.25;;;12.07;79.28
75418;BME280;63997;52.112;5.420;2023-03-30T00:25:06;100627.91;;;12.06;79.45
75418;BME280;63997;52.112;5.420;2023-03-30T00:27:34;100632.03;;;12.03;79.31
75418;BME280;63997;52.112;5.420;2023-03-30T00:30:04;100622.47;;;12.02;79.02
75418;BME280;63997;52.112;5.420;2023-03-30T00:32:31;100619.91;;;12.06;78.92
75418;BME280;63997;52.112;5.420;2023-03-30T00:34:59;100614.59;;;12.06;78.70
75418;BME280;63997;52.112;5.420;2023-03-30T00:37:27;100629.03;;;12.05;78.63
75418;BME280;63997;52.112;5.420;2023-03-30T00:39:53;100632.47;;;12.05;78.61
75418;BME280;63997;52.112;5.420;2023-03-30T00:42:20;100632.25;;;12.10;78.46
75418;BME280;63997;52.112;5.420;2023-03-30T00:47:40;100636.69;;;12.18;78.06
75418;BME280;63997;52.112;5.420;2023-03-30T00:50:07;100633.00;;;12.23;77.44
75418;BME280;63997;52.112;5.420;2023-03-30T00:52:35;100624.00;;;12.28;76.93
75418;BME280;63997;52.112;5.420;2023-03-30T00:55:04;100625.25;;;12.30;76.77
75418;BME280;63997;52.112;5.420;2023-03-30T00:57:35;100623.00;;;12.32;76.75
75418;BME280;63997;52.112;5.420;2023-03-30T01:00:04;100625.25;;;12.30;77.00
75418;BME280;63997;52.112;5.420;2023-03-30T01:02:37;100617.13;;;12.27;76.91
75418;BME280;63997;52.112;5.420;2023-03-30T01:05:06;100597.47;;;12.19;76.19
75418;BME280;63997;52.112;5.420;2023-03-30T01:07:34;100596.72;;;12.18;76.11
75418;BME280;63997;52.112;5.420;2023-03-30T01:10:01;100585.28;;;12.18;76.22
75418;BME280;63997;52.112;5.420;2023-03-30T01:12:28;100580.16;;;12.13;76.08
75418;BME280;63997;52.112;5.420;2023-03-30T01:14:55;100583.06;;;12.08;76.24
75418;BME280;63997;52.112;5.420;2023-03-30T01:17:34;100588.28;;;12.04;76.24
75418;BME280;63997;52.112;5.420;2023-03-30T01:20:10;100582.38;;;11.99;76.50
75418;BME280;63997;52.112;5.420;2023-03-30T01:28:49;100586.28;;;11.89;76.72
75418;BME280;63997;52.112;5.420;2023-03-30T01:31:51;100587.28;;;11.84;77.05
75418;BME280;63997;52.112;5.420;2023-03-30T01:35:02;100575.72;;;11.80;77.10
75418;BME280;63997;52.112;5.420;2023-03-30T01:40:18;100576.16;;;11.70;77.41
75418;BME280;63997;52.112;5.420;2023-03-30T01:43:17;100588.47;;;11.62;77.46
75418;BME280;63997;52.112;5.420;2023-03-30T01:45:57;100599.91;;;11.63;77.34
75418;BME280;63997;52.112;5.420;2023-03-30T01:48:37;100594.56;;;11.63;77.71
75418;BME280;63997;52.112;5.420;2023-03-30T01:51:17;100581.56;;;11.61;77.95
75418;BME280;63997;52.112;5.420;2023-03-30T01:53:50;100566.25;;;11.58;78.14
75418;BME280;63997;52.112;5.420;2023-03-30T01:56:25;100563.59;;;11.58;78.10
75418;BME280;63997;52.112;5.420;2023-03-30T01:59:19;100556.03;;;11.60;78.06
75418;BME280;63997;52.112;5.420;2023-03-30T02:01:50;100543.84;;;11.59;78.00
75418;BME280;63997;52.112;5.420;2023-03-30T02:04:21;100539.19;;;11.56;77.89
75418;BME280;63997;52.112;5.420;2023-03-30T02:06:54;100549.03;;;11.56;77.92
75418;BME280;63997;52.112;5.420;2023-03-30T02:09:23;100542.16;;;11.55;78.07
75418;BME280;63997;52.112;5.420;2023-03-30T02:11:52;100547.50;;;11.55;78.03
75418;BME280;63997;52.112;5.420;2023-03-30T02:14:22;100545.94;;;11.54;78.01
75418;BME280;63997;52.112;5.420;2023-03-30T02:16:56;100539.72;;;11.50;78.14
75418;BME280;63997;52.112;5.420;2023-03-30T02:19:24;100538.09;;;11.45;78.41
75418;BME280;63997;52.112;5.420;2023-03-30T02:21:50;100531.09;;;11.41;78.34
75418;BME280;63997;52.112;5.420;2023-03-30T02:24:22;100534.31;;;11.34;78.16
75418;BME280;63997;52.112;5.420;2023-03-30T02:26:51;100545.94;;;11.29;78.00
75418;BME280;63997;52.112;5.420;2023-03-30T02:29:20;100550.69;;;11.24;78.33
75418;BME280;63997;52.112;5.420;2023-03-30T02:31:50;100568.75;;;11.18;78.36
75418;BME280;63997;52.112;5.420;2023-03-30T02:40:06;100575.44;;;11.24;78.94
75418;BME280;63997;52.112;5.420;2023-03-30T02:48:20;100575.22;;;11.42;79.15
75418;BME280;63997;52.112;5.420;2023-03-30T02:56:31;100562.16;;;11.61;79.10
75418;BME280;63997;52.112;5.420;2023-03-30T02:59:05;100567.03;;;11.71;78.59
75418;BME280;63997;52.112;5.420;2023-03-30T03:01:41;100571.16;;;11.81;78.38
75418;BME280;63997;52.112;5.420;2023-03-30T03:04:10;100574.41;;;11.86;78.54
75418;BME280;63997;52.112;5.420;2023-03-30T03:06:38;100569.19;;;11.90;78.11
75418;BME280;63997;52.112;5.420;2023-03-30T03:09:05;100545.31;;;11.94;78.47
75418;BME280;63997;52.112;5.420;2023-03-30T03:11:31;100554.06;;;11.94;78.33
75418;BME280;63997;52.112;5.420;2023-03-30T03:13:58;100554.97;;;11.98;78.34
75418;BME280;63997;52.112;5.420;2023-03-30T03:16:24;100551.28;;;12.03;78.19
75418;BME280;63997;52.112;5.420;2023-03-30T03:18:51;100543.38;;;12.06;78.46
75418;BME280;63997;52.112;5.420;2023-03-30T03:21:18;100537.75;;;12.08;78.17
75418;BME280;63997;52.112;5.420;2023-03-30T03:23:45;100507.97;;;12.06;78.59
75418;BME280;63997;52.112;5.420;2023-03-30T03:26:13;100537.63;;;12.04;78.61
75418;BME280;63997;52.112;5.420;2023-03-30T03:28:39;100528.63;;;12.09;79.14
75418;BME280;63997;52.112;5.420;2023-03-30T03:31:06;100529.75;;;12.08;79.54
75418;BME280;63997;52.112;5.420;2023-03-30T03:33:33;100533.19;;;12.08;79.47
75418;BME280;63997;52.112;5.420;2023-03-30T03:35:59;100527.41;;;12.06;79.67
75418;BME280;63997;52.112;5.420;2023-03-30T03:38:26;100531.53;;;12.04;80.07
75418;BME280;63997;52.112;5.420;2023-03-30T03:40:56;100522.75;;;12.03;80.34
75418;BME280;63997;52.112;5.420;2023-03-30T03:43:23;100518.63;;;12.06;80.38
75418;BME280;63997;52.112;5.420;2023-03-30T03:45:50;100512.22;;;12.07;80.21
75418;BME280;63997;52.112;5.420;2023-03-30T03:48:19;100500.84;;;12.10;80.30
75418;BME280;63997;52.112;5.420;2023-03-30T03:50:51;100511.53;;;12.10;80.53
75418;BME280;63997;52.112;5.420;2023-03-30T03:53:18;100502.50;;;12.14;80.62
75418;BME280;63997;52.112;5.420;2023-03-30T03:55:45;100507.50;;;12.16;81.19
75418;BME280;63997;52.112;5.420;2023-03-30T03:58:12;100510.63;;;12.18;81.20
75418;BME280;63997;52.112;5.420;2023-03-30T04:00:39;100501.81;;;12.17;80.97
75418;BME280;63997;52.112;5.420;2023-03-30T04:03:06;100511.06;;;12.20;81.21
75418;BME280;63997;52.112;5.420;2023-03-30T04:05:34;100521.91;;;12.27;80.89
75418;BME280;63997;52.112;5.420;2023-03-30T04:08:01;100520.13;;;12.31;81.23
75418;BME280;63997;52.112;5.420;2023-03-30T04:10:27;100503.78;;;12.33;80.71
75418;BME280;63997;52.112;5.420;2023-03-30T04:12:55;100508.34;;;12.32;81.13
75418;BME280;63997;52.112;5.420;2023-03-30T04:15:23;100510.25;;;12.32;80.70
75418;BME280;63997;52.112;5.420;2023-03-30T04:17:49;100509.56;;;12.35;81.05
75418;BME280;63997;52.112;5.420;2023-03-30T04:20:24;100507.91;;;12.30;81.22
75418;BME280;63997;52.112;5.420;2023-03-30T04:22:51;100505.69;;;12.32;81.15
75418;BME280;63997;52.112;5.420;2023-03-30T04:25:23;100501.88;;;12.33;81.15
75418;BME280;63997;52.112;5.420;2023-03-30T04:27:51;100506.44;;;12.33;80.89
75418;BME280;63997;52.112;5.420;2023-03-30T04:30:19;100499.22;;;12.33;80.98
75418;BME280;63997;52.112;5.420;2023-03-30T04:32:45;100508.44;;;12.36;81.13
75418;BME280;63997;52.112;5.420;2023-03-30T04:35:19;100501.22;;;12.36;80.83
75418;BME280;63997;52.112;5.420;2023-03-30T04:37:46;100506.09;;;12.34;81.36
75418;BME280;63997;52.112;5.420;2023-03-30T04:40:17;100501.88;;;12.33;81.33
75418;BME280;63997;52.112;5.420;2023-03-30T04:42:44;100493.47;;;12.31;81.39
75418;BME280;63997;52.112;5.420;2023-03-30T04:45:15;100490.81;;;12.31;81.53
75418;BME280;63997;52.112;5.420;2023-03-30T04:47:45;100493.69;;;12.26;82.06
75418;BME280;63997;52.112;5.420;2023-03-30T04:50:13;100491.38;;;12.25;81.93
75418;BME280;63997;52.112;5.420;2023-03-30T04:52:39;100493.16;;;12.21;81.96
75418;BME280;63997;52.112;5.420;2023-03-30T04:55:07;100497.59;;;12.16;82.56
75418;BME280;63997;52.112;5.420;2023-03-30T04:57:35;100502.84;;;12.13;82.76
75418;BME280;63997;52.112;5.420;2023-03-30T05:00:02;100504.28;;;12.10;83.00
75418;BME280;63997;52.112;5.420;2023-03-30T05:02:31;100506.41;;;12.05;82.97
75418;BME280;63997;52.112;5.420;2023-03-30T05:04:57;100499.41;;;12.00;83.30
75418;BME280;63997;52.112;5.420;2023-03-30T05:07:24;100495.13;;;11.96;83.59
75418;BME280;63997;52.112;5.420;2023-03-30T05:09:50;100498.44;;;11.93;83.94
75418;BME280;63997;52.112;5.420;2023-03-30T05:12:17;100499.56;;;11.91;84.32
75418;BME280;63997;52.112;5.420;2023-03-30T05:14:44;100494.66;;;11.94;84.19
75418;BME280;63997;52.112;5.420;2023-03-30T05:17:10;100499.91;;;11.90;84.19
75418;BME280;63997;52.112;5.420;2023-03-30T05:19:37;100498.25;;;11.85;83.89
75418;BME280;63997;52.112;5.420;2023-03-30T05:22:03;100501.09;;;11.80;84.32
75418;BME280;63997;52.112;5.420;2023-03-30T05:24:30;100508.22;;;11.76;84.30
75418;BME280;63997;52.112;5.420;2023-03-30T05:26:56;100502.44;;;11.74;84.54
75418;BME280;63997;52.112;5.420;2023-03-30T05:29:22;100493.22;;;11.72;85.05
75418;BME280;63997;52.112;5.420;2023-03-30T05:31:49;100485.47;;;11.66;85.24
75418;BME280;63997;52.112;5.420;2023-03-30T05:34:15;100491.34;;;11.60;85.31
75418;BME280;63997;52.112;5.420;2023-03-30T05:36:42;100491.91;;;11.53;85.78
75418;BME280;63997;52.112;5.420;2023-03-30T05:39:09;100497.88;;;11.50;85.93
75418;BME280;63997;52.112;5.420;2023-03-30T05:41:35;100495.91;;;11.47;86.11
75418;BME280;63997;52.112;5.420;2023-03-30T05:44:02;100489.34;;;11.45;85.91
75418;BME280;63997;52.112;5.420;2023-03-30T05:46:30;100502.66;;;11.45;85.98
75418;BME280;63997;52.112;5.420;2023-03-30T05:48:56;100498.91;;;11.46;86.05
75418;BME280;63997;52.112;5.420;2023-03-30T05:51:23;100504.34;;;11.49;85.88
75418;BME280;63997;52.112;5.420;2023-03-30T05:53:50;100504.88;;;11.55;85.64
75418;BME280;63997;52.112;5.420;2023-03-30T05:56:16;100505.34;;;11.57;86.02
75418;BME280;63997;52.112;5.420;2023-03-30T05:58:42;100513.34;;;11.57;86.06
75418;BME280;63997;52.112;5.420;2023-03-30T06:01:09;100505.00;;;11.58;85.84
75418;BME280;63997;52.112;5.420;2023-03-30T06:03:37;100507.31;;;11.60;85.66
75418;BME280;63997;52.112;5.420;2023-03-30T06:06:05;100508.88;;;11.61;85.43
75418;BME280;63997;52.112;5.420;2023-03-30T06:08:32;100511.31;;;11.66;85.20
75418;BME280;63997;52.112;5.420;2023-03-30T06:10:59;100518.31;;;11.71;85.01
75418;BME280;63997;52.112;5.420;2023-03-30T06:13:27;100518.66;;;11.69;84.65
75418;BME280;63997;52.112;5.420;2023-03-30T06:15:53;100502.44;;;11.74;84.84
75418;BME280;63997;52.112;5.420;2023-03-30T06:18:20;100523.44;;;11.88;84.63
75418;BME280;63997;52.112;5.420;2023-03-30T06:20:46;100518.00;;;11.84;83.96
75418;BME280;63997;52.112;5.420;2023-03-30T06:23:14;100521.34;;;11.81;84.30
75418;BME280;63997;52.112;5.420;2023-03-30T06:25:44;100514.38;;;12.17;84.12
75418;BME280;63997;52.112;5.420;2023-03-30T06:28:11;100522.31;;;12.41;82.56
75418;BME280;63997;52.112;5.420;2023-03-30T06:30:38;100518.38;;;12.51;82.58
75418;BME280;63997;52.112;5.420;2023-03-30T06:33:04;100535.38;;;12.59;82.19
75418;BME280;63997;52.112;5.420;2023-03-30T06:35:30;100532.66;;;13.46;80.89
75418;BME280;63997;52.112;5.420;2023-03-30T06:37:58;100530.59;;;13.71;78.82
75418;BME280;63997;52.112;5.420;2023-03-30T06:40:24;100536.84;;;13.79;77.36
75418;BME280;63997;52.112;5.420;2023-03-30T06:42:50;100537.44;;;13.37;77.45
75418;BME280;63997;52.112;5.420;2023-03-30T06:45:17;100542.25;;;13.98;77.69
75418;BME280;63997;52.112;5.420;2023-03-30T06:47:43;100533.00;;;15.35;74.01
75418;BME280;63997;52.112;5.420;2023-03-30T06:50:10;100535.47;;;16.27;68.33
75418;BME280;63997;52.112;5.420;2023-03-30T06:52:36;100537.75;;;15.68;69.57
75418;BME280;63997;52.112;5.420;2023-03-30T06:55:04;100532.47;;;15.26;70.02
75418;BME280;63997;52.112;5.420;2023-03-30T06:57:31;100544.47;;;15.32;69.34
75418;BME280;63997;52.112;5.420;2023-03-30T06:59:57;100539.44;;;15.07;69.55
75418;BME280;63997;52.112;5.420;2023-03-30T07:02:24;100545.53;;;15.04;69.64
75418;BME280;63997;52.112;5.420;2023-03-30T07:04:51;100547.47;;;15.07;69.72
75418;BME280;63997;52.112;5.420;2023-03-30T07:07:17;100553.31;;;15.13;68.70
75418;BME280;63997;52.112;5.420;2023-03-30T07:09:44;100558.88;;;14.62;69.84
75418;BME280;63997;52.112;5.420;2023-03-30T07:12:10;100561.16;;;14.25;72.12
75418;BME280;63997;52.112;5.420;2023-03-30T07:14:37;100560.25;;;14.01;72.81
75418;BME280;63997;52.112;5.420;2023-03-30T07:17:03;100559.09;;;13.83;72.72
75418;BME280;63997;52.112;5.420;2023-03-30T07:19:30;100567.75;;;13.61;72.62
75418;BME280;63997;52.112;5.420;2023-03-30T07:21:56;100584.13;;;13.43;73.92
75418;BME280;63997;52.112;5.420;2023-03-30T07:24:22;100576.38;;;13.38;74.32
75418;BME280;63997;52.112;5.420;2023-03-30T07:26:48;100582.38;;;13.35;74.00
75418;BME280;63997;52.112;5.420;2023-03-30T07:29:15;100584.72;;;13.37;74.65
75418;BME280;63997;52.112;5.420;2023-03-30T07:31:42;100586.19;;;13.34;74.50
75418;BME280;63997;52.112;5.420;2023-03-30T07:34:08;100592.28;;;13.35;74.94
75418;BME280;63997;52.112;5.420;2023-03-30T07:36:35;100591.78;;;13.61;74.36
75418;BME280;63997;52.112;5.420;2023-03-30T07:39:01;100592.56;;;13.45;74.47
75418;BME280;63997;52.112;5.420;2023-03-30T07:41:27;100599.72;;;13.26;75.20
75418;BME280;63997;52.112;5.420;2023-03-30T07:43:54;100593.50;;;13.21;75.53
75418;BME280;63997;52.112;5.420;2023-03-30T07:46:20;100606.41;;;13.35;75.05
75418;BME280;63997;52.112;5.420;2023-03-30T07:48:46;100608.66;;;13.33;74.89
75418;BME280;63997;52.112;5.420;2023-03-30T07:51:13;100602.75;;;13.56;75.08
75418;BME280;63997;52.112;5.420;2023-03-30T07:53:40;100615.94;;;13.64;74.25
75418;BME280;63997;52.112;5.420;2023-03-30T07:56:07;100601.81;;;13.64;74.56
75418;BME280;63997;52.112;5.420;2023-03-30T07:58:33;100599.25;;;14.02;75.14
75418;BME280;63997;52.112;5.420;2023-03-30T08:01:00;100601.97;;;14.22;72.91
75418;BME280;63997;52.112;5.420;2023-03-30T08:03:29;100615.06;;;13.92;73.43
75418;BME280;63997;52.112;5.420;2023-03-30T08:05:59;100608.25;;;13.94;73.90
75418;BME280;63997;52.112;5.420;2023-03-30T08:08:26;100604.44;;;13.95;73.51
75418;BME280;63997;52.112;5.420;2023-03-30T08:10:53;100617.03;;;13.79;74.05
75418;BME280;63997;52.112;5.420;2023-03-30T08:13:19;100612.03;;;13.62;73.83
75418;BME280;63997;52.112;5.420;2023-03-30T08:15:47;100623.94;;;13.48;74.43
75418;BME280;63997;52.112;5.420;2023-03-30T08:18:14;100622.53;;;13.39;75.34
75418;BME280;63997;52.112;5.420;2023-03-30T08:20:41;100623.50;;;13.31;75.65
75418;BME280;63997;52.112;5.420;2023-03-30T08:23:09;100626.63;;;13.20;75.48
75418;BME280;63997;52.112;5.420;2023-03-30T08:25:36;100632.81;;;13.09;76.01
75418;BME280;63997;52.112;5.420;2023-03-30T08:28:03;100637.03;;;13.10;75.96
75418;BME280;63997;52.112;5.420;2023-03-30T08:30:34;100637.19;;;13.17;76.27
75418;BME280;63997;52.112;5.420;2023-03-30T08:33:00;100634.06;;;13.27;76.11
75418;BME280;63997;52.112;5.420;2023-03-30T08:35:27;100636.59;;;13.36;76.76
75418;BME280;63997;52.112;5.420;2023-03-30T08:37:54;100632.72;;;13.33;75.72
75418;BME280;63997;52.112;5.420;2023-03-30T08:40:20;100636.59;;;13.36;75.89
75418;BME280;63997;52.112;5.420;2023-03-30T08:43:01;100643.81;;;13.35;75.80
75418;BME280;63997;52.112;5.420;2023-03-30T08:45:36;100636.53;;;13.20;76.12
75418;BME280;63997;52.112;5.420;2023-03-30T08:50:46;100658.28;;;13.06;76.18
75418;BME280;63997;52.112;5.420;2023-03-30T08:53:18;100669.13;;;12.97;76.71
75418;BME280;63997;52.112;5.420;2023-03-30T08:55:48;100660.16;;;13.06;76.31
75418;BME280;63997;52.112;5.420;2023-03-30T08:58:42;100658.16;;;13.15;76.38
75418;BME280;63997;52.112;5.420;2023-03-30T09:01:17;100653.97;;;13.30;76.69
75418;BME280;63997;52.112;5.420;2023-03-30T09:06:27;100663.56;;;13.31;76.08
75418;BME280;63997;52.112;5.420;2023-03-30T09:08:58;100665.47;;;13.30;75.28
75418;BME280;63997;52.112;5.420;2023-03-30T09:11:33;100660.56;;;13.48;76.26
75418;BME280;63997;52.112;5.420;2023-03-30T09:14:03;100652.91;;;13.94;75.36
75418;BME280;63997;52.112;5.420;2023-03-30T09:16:39;100651.63;;;14.03;73.56
75418;BME280;63997;52.112;5.420;2023-03-30T09:19:12;100653.06;;;14.17;73.90
75418;BME280;63997;52.112;5.420;2023-03-30T09:21:39;100658.63;;;14.43;73.56
75418;BME280;63997;52.112;5.420;2023-03-30T09:24:12;100661.38;;;14.63;72.13
75418;BME280;63997;52.112;5.420;2023-03-30T09:27:20;100667.31;;;14.72;72.09
75418;BME280;63997;52.112;5.420;2023-03-30T09:29:52;100674.34;;;14.80;72.97
75418;BME280;63997;52.112;5.420;2023-03-30T09:32:31;100676.75;;;14.85;70.21
75418;BME280;63997;52.112;5.420;2023-03-30T09:35:03;100676.75;;;14.85;70.02
75418;BME280;63997;52.112;5.420;2023-03-30T09:37:33;100679.63;;;14.96;69.95
75418;BME280;63997;52.112;5.420;2023-03-30T09:40:22;100675.50;;;14.98;70.38
75418;BME280;63997;52.112;5.420;2023-03-30T09:43:00;100693.53;;;15.21;70.57
75418;BME280;63997;52.112;5.420;2023-03-30T09:45:32;100692.66;;;15.36;68.93
75418;BME280;63997;52.112;5.420;2023-03-30T09:48:07;100697.91;;;15.10;68.05
75418;BME280;63997;52.112;5.420;2023-03-30T09:50:39;100695.63;;;14.92;68.68
75418;BME280;63997;52.112;5.420;2023-03-30T09:53:26;100700.69;;;14.78;68.78
75418;BME280;63997;52.112;5.420;2023-03-30T09:56:00;100707.00;;;14.70;69.25
75418;BME280;63997;52.112;5.420;2023-03-30T09:58:32;100709.28;;;14.68;68.58
75418;BME280;63997;52.112;5.420;2023-03-30T10:03:32;100709.97;;;14.65;68.52
75418;BME280;63997;52.112;5.420;2023-03-30T10:06:10;100703.75;;;14.96;68.93
75418;BME280;63997;52.112;5.420;2023-03-30T10:11:18;100717.63;;;15.40;68.37
75418;BME280;63997;52.112;5.420;2023-03-30T10:13:48;100718.25;;;15.33;67.45
75418;BME280;63997;52.112;5.420;2023-03-30T10:16:26;100719.84;;;15.15;66.95
75418;BME280;63997;52.112;5.420;2023-03-30T10:18:58;100710.09;;;14.88;66.86
75418;BME280;63997;52.112;5.420;2023-03-30T10:21:29;100715.78;;;14.86;66.41
75418;BME280;63997;52.112;5.420;2023-03-30T10:26:43;100717.41;;;14.91;66.63
75418;BME280;63997;52.112;5.420;2023-03-30T10:29:16;100713.53;;;14.88;67.08
75418;BME280;63997;52.112;5.420;2023-03-30T10:31:45;100728.31;;;14.82;67.76
75418;BME280;63997;52.112;5.420;2023-03-30T10:34:19;100727.06;;;14.76;67.20
75418;BME280;63997;52.112;5.420;2023-03-30T10:36:47;100736.09;;;14.87;67.83
75418;BME280;63997;52.112;5.420;2023-03-30T10:39:21;100716.50;;;14.83;68.39
75418;BME280;63997;52.112;5.420;2023-03-30T10:41:49;100718.22;;;14.75;67.12
75418;BME280;63997;52.112;5.420;2023-03-30T10:44:26;100729.97;;;15.06;69.17
75418;BME280;63997;52.112;5.420;2023-03-30T10:47:16;100716.44;;;15.18;67.45
75418;BME280;63997;52.112;5.420;2023-03-30T10:52:35;100720.03;;;14.87;67.02
75418;BME280;63997;52.112;5.420;2023-03-30T10:58:53;100731.22;;;14.58;68.37
75418;BME280;63997;52.112;5.420;2023-03-30T11:01:28;100727.66;;;14.69;68.49
75418;BME280;63997;52.112;5.420;2023-03-30T11:04:02;100721.22;;;14.90;67.38
75418;BME280;63997;52.112;5.420;2023-03-30T11:06:50;100730.75;;;14.87;66.40
75418;BME280;63997;52.112;5.420;2023-03-30T11:09:22;100743.25;;;14.83;67.04
75418;BME280;63997;52.112;5.420;2023-03-30T11:11:56;100731.53;;;14.72;66.89
75418;BME280;63997;52.112;5.420;2023-03-30T11:14:38;100737.25;;;14.70;67.90
75418;BME280;63997;52.112;5.420;2023-03-30T11:17:10;100716.03;;;15.16;66.43
75418;BME280;63997;52.112;5.420;2023-03-30T11:19:51;100730.44;;;15.31;66.84
75418;BME280;63997;52.112;5.420;2023-03-30T11:22:32;100731.66;;;15.33;65.62
75418;BME280;63997;52.112;5.420;2023-03-30T11:25:14;100738.63;;;15.19;66.08
75418;BME280;63997;52.112;5.420;2023-03-30T11:27:51;100745.91;;;14.99;66.18
75418;BME280;63997;52.112;5.420;2023-03-30T11:30:32;100747.06;;;14.82;66.05
75418;BME280;63997;52.112;5.420;2023-03-30T11:33:06;100743.19;;;14.79;65.11
75418;BME280;63997;52.112;5.420;2023-03-30T11:35:41;100754.28;;;14.62;65.40
75418;BME280;63997;52.112;5.420;2023-03-30T11:41:20;100753.41;;;14.58;66.92
75418;BME280;63997;52.112;5.420;2023-03-30T11:43:49;100750.69;;;14.74;66.42
75418;BME280;63997;52.112;5.420;2023-03-30T11:46:26;100744.03;;;14.84;65.85
75418;BME280;63997;52.112;5.420;2023-03-30T11:54:19;100750.69;;;14.74;67.21
75418;BME280;63997;52.112;5.420;2023-03-30T11:59:52;100763.97;;;14.86;66.68
75418;BME280;63997;52.112;5.420;2023-03-30T12:02:34;100752.09;;;14.68;66.25
75418;BME280;63997;52.112;5.420;2023-03-30T12:05:17;100755.75;;;14.60;67.03
75418;BME280;63997;52.112;5.420;2023-03-30T12:08:11;100758.06;;;14.61;67.75
75418;BME280;63997;52.112;5.420;2023-03-30T12:10:48;100772.28;;;14.81;67.83
75418;BME280;63997;52.112;5.420;2023-03-30T12:13:17;100757.56;;;14.91;67.88
75418;BME280;63997;52.112;5.420;2023-03-30T12:21:08;100759.09;;;15.27;67.14
75418;BME280;63997;52.112;5.420;2023-03-30T12:23:45;100765.50;;;15.22;67.10
75418;BME280;63997;52.112;5.420;2023-03-30T12:26:27;100760.16;;;15.22;67.31
75418;BME280;63997;52.112;5.420;2023-03-30T12:34:35;100766.13;;;15.35;65.19
75418;BME280;63997;52.112;5.420;2023-03-30T12:37:17;100765.00;;;15.36;66.19
75418;BME280;63997;52.112;5.420;2023-03-30T12:39:53;100762.00;;;15.38;65.65
75418;BME280;63997;52.112;5.420;2023-03-30T12:42:30;100763.53;;;15.39;64.48
75418;BME280;63997;52.112;5.420;2023-03-30T12:45:24;100751.06;;;15.27;65.39
75418;BME280;63997;52.112;5.420;2023-03-30T12:50:50;100766.16;;;15.16;65.72
75418;BME280;63997;52.112;5.420;2023-03-30T13:04:36;100773.00;;;14.97;66.12
75418;BME280;63997;52.112;5.420;2023-03-30T13:07:15;100768.03;;;14.80;67.36
75418;BME280;63997;52.112;5.420;2023-03-30T13:12:44;100775.69;;;14.62;69.33
75418;BME280;63997;52.112;5.420;2023-03-30T13:20:52;100766.78;;;14.42;70.28
75418;BME280;63997;52.112;5.420;2023-03-30T13:26:18;100761.88;;;14.60;70.51
75418;BME280;63997;52.112;5.420;2023-03-30T13:31:56;100759.97;;;14.96;70.53
75418;BME280;63997;52.112;5.420;2023-03-30T13:34:46;100749.50;;;15.26;70.91
75418;BME280;63997;52.112;5.420;2023-03-30T13:40:40;100754.41;;;15.82;68.47
75418;BME280;63997;52.112;5.420;2023-03-30T13:46:40;100737.38;;;16.17;67.78
75418;BME280;63997;52.112;5.420;2023-03-30T13:49:48;100742.91;;;15.81;66.59
75418;BME280;63997;52.112;5.420;2023-03-30T13:52:30;100752.94;;;15.65;66.29
75418;BME280;63997;52.112;5.420;2023-03-30T13:54:57;100745.13;;;15.56;67.48
75418;BME280;63997;52.112;5.420;2023-03-30T13:57:32;100741.13;;;15.66;66.48
75418;BME280;63997;52.112;5.420;2023-03-30T14:02:41;100724.38;;;15.73;66.52
75418;BME280;63997;52.112;5.420;2023-03-30T14:05:15;100730.69;;;15.84;65.53
75418;BME280;63997;52.112;5.420;2023-03-30T14:07:46;100721.81;;;15.80;64.19
75418;BME280;63997;52.112;5.420;2023-03-30T14:12:41;100721.41;;;15.78;65.47
75418;BME280;63997;52.112;5.420;2023-03-30T14:15:20;100720.84;;;15.92;64.91
75418;BME280;63997;52.112;5.420;2023-03-30T14:17:53;100721.31;;;16.20;65.30
75418;BME280;63997;52.112;5.420;2023-03-30T14:23:01;100717.31;;;16.33;62.18
75418;BME280;63997;52.112;5.420;2023-03-30T14:25:33;100731.06;;;16.32;61.52
75418;BME280;63997;52.112;5.420;2023-03-30T14:28:18;100725.34;;;15.84;62.29
75418;BME280;63997;52.112;5.420;2023-03-30T14:33:20;100733.00;;;15.63;63.55
75418;BME280;63997;52.112;5.420;2023-03-30T14:35:51;100738.53;;;15.54;64.13
75418;BME280;63997;52.112;5.420;2023-03-30T14:38:32;100739.47;;;15.61;64.08
75418;BME280;63997;52.112;5.420;2023-03-30T14:41:07;100736.28;;;15.98;65.61
75418;BME280;63997;52.112;5.420;2023-03-30T14:43:34;100732.72;;;16.13;64.27
75418;BME280;63997;52.112;5.420;2023-03-30T14:46:07;100727.13;;;16.22;62.87
75418;BME280;63997;52.112;5.420;2023-03-30T14:48:37;100734.50;;;16.29;63.32
75418;BME280;63997;52.112;5.420;2023-03-30T14:51:18;100749.59;;;16.14;62.49
75418;BME280;63997;52.112;5.420;2023-03-30T14:53:45;100745.00;;;15.92;62.32
75418;BME280;63997;52.112;5.420;2023-03-30T14:56:12;100741.81;;;16.05;63.74
75418;BME280;63997;52.112;5.420;2023-03-30T14:58:38;100728.91;;;16.14;60.51
75418;BME280;63997;52.112;5.420;2023-03-30T15:01:09;100733.56;;;16.18;60.69
75418;BME280;63997;52.112;5.420;2023-03-30T15:03:39;100738.09;;;16.13;60.88
75418;BME280;63997;52.112;5.420;2023-03-30T15:06:07;100721.88;;;16.06;60.54